Terminal Aerodrome Forecast
Issued by NWS Dallas/Fort Worth, TX

Home | Current Version | Previous Version | Text Only | Print | Product List | Glossary On
Versions: 1 2 3 4 5 6 7 8 9 10 11 12 13 14 15 16 17 18 19 20 21 22 23 24 25 26 27
000
FTUS44 KFWD 031049 AAB
TAFDFW
TAF AMD
KDFW 031049Z 0311/0412 21013KT P6SM VCSH SCT020 BKN200
      TEMPO 0312/0314 BKN014
     FM031700 20014KT P6SM VCTS BKN035CB BKN250
      TEMPO 0320/0324 VRB20G30KT 5SM -TSRA BKN025CB
     FM040200 18011KT P6SM BKN150=

USA.gov is the U.S. government's official web portal to all federal, state and local government web resources and services.